createdAt,value
2022-10-28T00:00:09.865Z,0.00
2022-10-28T00:01:09.813Z,0.00
2022-10-28T00:02:09.795Z,0.00
2022-10-28T00:03:09.867Z,0.00
2022-10-28T00:04:09.750Z,0.00
2022-10-28T00:05:09.772Z,0.00
2022-10-28T00:06:09.719Z,0.00
2022-10-28T00:07:09.703Z,0.00
2022-10-28T00:08:09.682Z,0.00
2022-10-28T00:09:12.218Z,0.00
2022-10-28T00:10:09.679Z,0.00
2022-10-28T00:11:09.739Z,0.00
2022-10-28T00:12:09.672Z,0.00
2022-10-28T00:13:09.627Z,0.00
2022-10-28T00:14:09.629Z,0.00
2022-10-28T00:15:09.605Z,0.00
2022-10-28T00:16:09.588Z,0.00
2022-10-28T00:17:09.625Z,0.00
2022-10-28T00:18:09.598Z,0.00
2022-10-28T00:19:09.560Z,0.00
2022-10-28T00:20:09.588Z,0.00
2022-10-28T00:21:09.552Z,0.00
2022-10-28T00:22:09.487Z,0.00
2022-10-28T00:23:09.688Z,0.00
2022-10-28T00:24:09.471Z,0.00
2022-10-28T00:25:09.478Z,0.00
2022-10-28T00:26:09.459Z,0.00
2022-10-28T00:27:09.440Z,0.00
2022-10-28T00:28:09.472Z,0.00
2022-10-28T00:29:09.452Z,0.00
2022-10-28T00:30:09.405Z,0.00
2022-10-28T00:31:09.447Z,0.00
2022-10-28T00:32:09.360Z,0.00
2022-10-28T00:33:09.388Z,0.00
2022-10-28T00:34:09.352Z,0.00
2022-10-28T00:35:09.393Z,0.00
2022-10-28T00:36:09.324Z,0.00
2022-10-28T00:37:09.320Z,0.00
2022-10-28T00:38:09.277Z,0.00
2022-10-28T00:39:09.290Z,0.00
2022-10-28T00:40:09.273Z,0.00
2022-10-28T00:41:09.327Z,0.00
2022-10-28T00:42:09.217Z,0.00
2022-10-28T00:43:09.250Z,0.00
2022-10-28T00:44:09.210Z,0.00
2022-10-28T00:45:09.194Z,0.00
2022-10-28T00:46:09.175Z,0.00
2022-10-28T00:47:09.223Z,0.00
2022-10-28T00:48:09.173Z,0.00
2022-10-28T00:49:09.148Z,0.00
2022-10-28T00:50:09.126Z,0.00
2022-10-28T00:51:09.116Z,0.00
2022-10-28T00:52:09.125Z,0.00
2022-10-28T00:53:09.170Z,0.00
2022-10-28T00:54:09.071Z,0.00
2022-10-28T00:55:09.078Z,0.00
2022-10-28T00:56:09.032Z,0.00
2022-10-28T00:57:09.074Z,0.00
2022-10-28T00:58:09.041Z,0.00
2022-10-28T00:59:09.066Z,0.00
2022-10-28T01:00:09.020Z,0.00
2022-10-28T01:01:09.062Z,0.00
2022-10-28T01:02:09.066Z,0.00
2022-10-28T01:03:08.962Z,0.00
2022-10-28T01:04:08.955Z,0.00
2022-10-28T01:05:09.071Z,0.00
2022-10-28T01:06:08.928Z,0.00
2022-10-28T01:07:08.919Z,0.00
2022-10-28T01:08:08.971Z,0.00
2022-10-28T01:09:08.881Z,0.00
2022-10-28T01:10:09.000Z,0.00
2022-10-28T01:11:08.902Z,0.00
2022-10-28T01:12:08.944Z,0.00
2022-10-28T01:13:08.865Z,0.00
2022-10-28T01:14:08.809Z,0.00
2022-10-28T01:15:08.828Z,0.00
2022-10-28T01:16:08.816Z,0.00
2022-10-28T01:17:08.831Z,0.00
2022-10-28T01:18:08.753Z,0.00
2022-10-28T01:19:08.750Z,0.00
2022-10-28T01:20:08.852Z,0.00
2022-10-28T01:21:08.754Z,0.00
2022-10-28T01:22:08.722Z,0.00
2022-10-28T01:23:08.734Z,0.00
2022-10-28T01:24:08.692Z,0.00
2022-10-28T01:25:08.717Z,0.00
2022-10-28T01:26:08.647Z,0.00
2022-10-28T01:27:08.649Z,0.00
2022-10-28T01:28:08.649Z,0.00
2022-10-28T01:29:08.657Z,0.00
2022-10-28T01:30:08.579Z,0.00
2022-10-28T01:31:08.633Z,0.00
2022-10-28T01:32:08.573Z,0.00
2022-10-28T01:33:08.563Z,0.00
2022-10-28T01:34:08.568Z,0.00
2022-10-28T01:35:08.601Z,0.00
2022-10-28T01:36:08.505Z,0.00
2022-10-28T01:37:08.499Z,0.00
2022-10-28T01:38:08.471Z,0.00
2022-10-28T01:39:08.491Z,0.00
2022-10-28T01:40:08.463Z,0.00
2022-10-28T01:41:08.508Z,0.00
2022-10-28T01:42:08.458Z,0.00
2022-10-28T01:43:08.427Z,0.00
2022-10-28T01:44:08.397Z,0.00
2022-10-28T01:45:08.452Z,0.00
2022-10-28T01:46:08.385Z,0.00
2022-10-28T01:47:08.436Z,0.00
2022-10-28T01:48:08.362Z,0.00
2022-10-28T01:49:08.393Z,0.00
2022-10-28T01:50:08.324Z,0.00
2022-10-28T01:51:08.320Z,0.00
2022-10-28T01:52:08.387Z,0.00
2022-10-28T01:53:08.360Z,0.00
2022-10-28T01:54:08.280Z,0.00
2022-10-28T01:55:08.260Z,0.00
2022-10-28T01:56:08.236Z,0.00
2022-10-28T01:57:08.267Z,0.00
2022-10-28T01:58:08.221Z,0.00
2022-10-28T01:59:08.286Z,0.00
2022-10-28T02:00:08.234Z,0.00
2022-10-28T02:01:08.311Z,0.00
2022-10-28T02:02:08.228Z,0.00
2022-10-28T02:03:08.195Z,0.00
2022-10-28T02:04:08.160Z,0.00
2022-10-28T02:05:08.198Z,0.00
2022-10-28T02:06:08.151Z,0.00
2022-10-28T02:07:08.116Z,0.00
2022-10-28T02:08:08.098Z,0.00
2022-10-28T02:09:08.101Z,0.00
2022-10-28T02:10:08.081Z,0.00
2022-10-28T02:11:08.092Z,0.00
2022-10-28T02:12:08.073Z,0.00
2022-10-28T02:13:08.040Z,0.00
2022-10-28T02:14:08.013Z,0.00
2022-10-28T02:16:08.020Z,0.00
2022-10-28T02:17:08.085Z,0.00
2022-10-28T02:18:07.964Z,0.00
2022-10-28T02:19:07.963Z,0.00
2022-10-28T02:20:07.971Z,0.00
2022-10-28T02:21:07.929Z,0.00
2022-10-28T02:22:07.936Z,0.00
2022-10-28T02:23:07.979Z,0.00
2022-10-28T02:24:07.896Z,0.00
2022-10-28T02:25:07.903Z,0.00
2022-10-28T02:26:07.836Z,0.00
2022-10-28T02:27:07.859Z,0.00
2022-10-28T02:28:07.866Z,0.00
2022-10-28T02:29:07.865Z,0.00
2022-10-28T02:30:07.782Z,0.00
2022-10-28T02:31:07.827Z,0.00
2022-10-28T02:32:07.756Z,0.00
2022-10-28T02:33:07.775Z,0.00
2022-10-28T02:34:07.790Z,0.00
2022-10-28T02:35:07.780Z,0.00
2022-10-28T02:36:07.775Z,0.00
2022-10-28T02:37:07.700Z,0.00
2022-10-28T02:38:07.698Z,0.00
2022-10-28T02:39:07.706Z,0.00
2022-10-28T02:40:07.650Z,0.00
2022-10-28T02:41:07.686Z,0.00
2022-10-28T02:42:07.681Z,0.00
2022-10-28T02:43:07.665Z,0.00
2022-10-28T02:44:07.612Z,0.00
2022-10-28T02:45:07.600Z,0.00
2022-10-28T02:46:07.572Z,0.00
2022-10-28T02:47:07.639Z,0.00
2022-10-28T02:48:07.578Z,0.00
2022-10-28T02:49:07.553Z,0.00
2022-10-28T02:50:07.538Z,0.00
2022-10-28T02:51:07.523Z,0.00
2022-10-28T02:52:07.523Z,0.00
2022-10-28T02:53:07.536Z,0.00
2022-10-28T02:54:07.518Z,0.00
2022-10-28T02:55:07.474Z,0.00
2022-10-28T02:56:07.443Z,0.00
2022-10-28T02:57:07.443Z,0.00
2022-10-28T02:58:07.415Z,0.00
2022-10-28T02:59:07.468Z,0.00
2022-10-28T03:00:07.385Z,0.00
2022-10-28T03:01:07.420Z,0.00
2022-10-28T03:02:07.407Z,0.00
2022-10-28T03:03:07.374Z,0.00
2022-10-28T03:04:07.347Z,0.00
2022-10-28T03:05:07.394Z,0.00
2022-10-28T03:06:07.326Z,0.00
2022-10-28T03:07:07.333Z,0.00
2022-10-28T03:08:07.297Z,0.00
2022-10-28T03:09:07.303Z,0.00
2022-10-28T03:10:07.262Z,0.00
2022-10-28T03:11:07.283Z,0.00
2022-10-28T03:12:07.263Z,0.00
2022-10-28T03:13:07.229Z,0.00
2022-10-28T03:14:09.589Z,0.00
2022-10-28T03:15:07.245Z,0.00
2022-10-28T03:16:07.178Z,0.00
2022-10-28T03:17:07.220Z,0.00
2022-10-28T03:18:07.181Z,0.00
2022-10-28T03:20:07.133Z,0.00
2022-10-28T03:21:07.148Z,0.00
2022-10-28T03:22:07.173Z,0.00
2022-10-28T03:23:07.143Z,0.00
2022-10-28T03:24:07.066Z,0.00
2022-10-28T03:25:07.102Z,0.00
2022-10-28T03:26:07.083Z,0.00
2022-10-28T03:27:07.041Z,0.00
2022-10-28T03:28:07.017Z,0.00
2022-10-28T03:29:07.089Z,0.00
2022-10-28T03:30:07.011Z,0.00
2022-10-28T03:31:07.007Z,0.00
2022-10-28T03:32:06.992Z,0.00
2022-10-28T03:33:06.953Z,0.00
2022-10-28T03:34:07.026Z,0.00
2022-10-28T03:35:06.981Z,0.00
2022-10-28T03:36:07.015Z,0.00
2022-10-28T03:37:06.892Z,0.00
2022-10-28T03:38:06.932Z,0.00
2022-10-28T03:39:06.872Z,0.00
2022-10-28T03:40:06.875Z,0.00
2022-10-28T03:41:06.867Z,0.00
2022-10-28T03:42:06.902Z,0.00
2022-10-28T03:43:06.818Z,0.00
2022-10-28T03:44:06.814Z,0.00
2022-10-28T03:45:06.847Z,0.00
2022-10-28T03:46:06.788Z,0.00
2022-10-28T03:47:06.863Z,0.00
2022-10-28T03:48:06.760Z,0.00
2022-10-28T03:49:06.773Z,0.00
2022-10-28T03:50:06.780Z,0.00
2022-10-28T03:51:06.714Z,0.00
2022-10-28T03:52:06.768Z,0.00
2022-10-28T03:53:06.710Z,0.00
2022-10-28T03:54:06.681Z,0.00
2022-10-28T03:55:06.665Z,0.00
2022-10-28T03:56:06.673Z,0.00
2022-10-28T03:57:06.630Z,0.00
2022-10-28T03:58:06.629Z,0.00
2022-10-28T03:59:06.683Z,0.00
2022-10-28T04:00:06.653Z,0.00
2022-10-28T04:01:06.611Z,0.00
2022-10-28T04:02:06.714Z,0.00
2022-10-28T04:03:06.552Z,0.00
2022-10-28T04:04:06.560Z,0.00
2022-10-28T04:05:06.551Z,0.00
2022-10-28T04:06:06.523Z,0.00
2022-10-28T04:07:06.533Z,0.00
2022-10-28T04:08:06.496Z,0.00
2022-10-28T04:09:06.465Z,0.00
2022-10-28T04:10:06.469Z,0.00
2022-10-28T04:11:06.547Z,0.00
2022-10-28T04:12:06.482Z,0.00
2022-10-28T04:13:06.444Z,0.00
2022-10-28T04:14:06.427Z,0.00
2022-10-28T04:15:06.385Z,0.00
2022-10-28T04:16:06.384Z,0.00
2022-10-28T04:17:06.489Z,0.00
2022-10-28T04:18:06.369Z,0.00
2022-10-28T04:19:06.346Z,0.00
2022-10-28T04:20:06.374Z,0.00
2022-10-28T04:21:06.305Z,0.00
2022-10-28T04:22:06.333Z,0.00
2022-10-28T04:23:06.320Z,0.00
2022-10-28T04:24:06.281Z,0.00
2022-10-28T04:25:06.316Z,0.00
2022-10-28T04:26:06.253Z,0.00
2022-10-28T04:27:06.266Z,0.00
2022-10-28T04:28:06.232Z,0.00
2022-10-28T04:29:06.275Z,0.00
2022-10-28T04:30:06.203Z,0.00
2022-10-28T04:31:06.173Z,0.00
2022-10-28T04:32:06.196Z,0.00
2022-10-28T04:33:06.186Z,0.00
2022-10-28T04:34:06.154Z,0.00
2022-10-28T04:35:06.162Z,0.00
2022-10-28T04:36:06.136Z,0.00
2022-10-28T04:37:06.094Z,0.00
2022-10-28T04:38:06.137Z,0.00
2022-10-28T04:39:06.067Z,0.00
2022-10-28T04:40:06.067Z,0.00
2022-10-28T04:41:06.093Z,0.00
2022-10-28T04:42:06.054Z,0.00
2022-10-28T04:43:08.563Z,0.00
2022-10-28T04:44:06.026Z,0.00
2022-10-28T04:45:05.997Z,0.00
2022-10-28T04:46:06.169Z,0.00
2022-10-28T04:47:06.031Z,0.00
2022-10-28T04:48:06.006Z,0.00
2022-10-28T04:49:05.945Z,0.00
2022-10-28T04:50:05.933Z,0.00
2022-10-28T04:51:05.995Z,0.00
2022-10-28T04:52:05.916Z,0.00
2022-10-28T04:53:05.929Z,0.00
2022-10-28T04:54:05.894Z,0.00
2022-10-28T04:55:05.863Z,0.00
2022-10-28T04:56:05.909Z,0.00
2022-10-28T04:57:05.829Z,0.00
2022-10-28T04:58:05.923Z,0.00
2022-10-28T04:59:05.842Z,0.00
2022-10-28T05:00:05.837Z,0.00
2022-10-28T05:01:05.838Z,0.00
2022-10-28T05:02:05.972Z,0.00
2022-10-28T05:03:05.775Z,0.00
2022-10-28T05:04:05.751Z,0.00
2022-10-28T05:05:05.848Z,0.00
2022-10-28T05:06:05.761Z,0.00
2022-10-28T05:07:05.702Z,0.00
2022-10-28T05:08:05.693Z,0.00
2022-10-28T05:09:05.755Z,0.00
2022-10-28T05:10:05.685Z,0.00
2022-10-28T05:11:05.716Z,0.00
2022-10-28T05:12:05.648Z,0.00
2022-10-28T05:13:05.619Z,0.00
2022-10-28T05:14:05.679Z,0.00
2022-10-28T05:15:05.607Z,0.00
2022-10-28T05:16:05.583Z,0.00
2022-10-28T05:17:05.604Z,0.00
2022-10-28T05:18:05.575Z,0.00
2022-10-28T05:19:05.544Z,0.00
2022-10-28T05:20:05.550Z,0.00
2022-10-28T05:21:05.515Z,0.00
2022-10-28T05:22:05.520Z,0.00
2022-10-28T05:23:05.516Z,0.00
2022-10-28T05:24:05.479Z,0.00
2022-10-28T05:25:05.464Z,0.00
2022-10-28T05:26:05.450Z,0.00
2022-10-28T05:27:05.444Z,0.00
2022-10-28T05:28:05.453Z,0.00
2022-10-28T05:29:05.453Z,0.00
2022-10-28T05:30:05.414Z,0.00
2022-10-28T05:31:05.382Z,0.00
2022-10-28T05:33:05.362Z,0.00
2022-10-28T05:34:05.374Z,0.00
2022-10-28T05:35:05.391Z,0.00
2022-10-28T05:36:05.343Z,0.00
2022-10-28T05:37:05.336Z,0.00
2022-10-28T05:38:05.326Z,0.00
2022-10-28T05:39:05.291Z,0.00
2022-10-28T05:40:05.275Z,0.00
2022-10-28T05:41:05.277Z,0.00
2022-10-28T05:42:05.273Z,0.00
2022-10-28T05:43:05.249Z,0.00
2022-10-28T05:44:05.360Z,0.00
2022-10-28T05:45:05.203Z,0.00
2022-10-28T05:46:05.132Z,0.00
2022-10-28T05:47:05.147Z,0.00
2022-10-28T05:48:05.139Z,0.00
2022-10-28T05:49:05.094Z,0.00
2022-10-28T05:50:05.121Z,0.00
2022-10-28T05:51:05.083Z,0.00
2022-10-28T05:52:05.140Z,0.00
2022-10-28T05:53:05.061Z,0.00
2022-10-28T05:54:05.049Z,0.00
2022-10-28T05:55:05.008Z,0.00
2022-10-28T05:56:05.066Z,0.00
2022-10-28T05:57:04.992Z,0.00
2022-10-28T05:58:04.974Z,0.00
2022-10-28T05:59:05.112Z,0.00
2022-10-28T06:00:04.971Z,0.00
2022-10-28T06:01:04.937Z,0.00
2022-10-28T06:02:04.940Z,0.00
2022-10-28T06:03:04.894Z,0.00
2022-10-28T06:04:05.048Z,0.00
2022-10-28T06:05:05.018Z,0.00
2022-10-28T06:06:04.883Z,0.00
2022-10-28T06:07:04.907Z,0.00
2022-10-28T06:08:04.845Z,0.00
2022-10-28T06:09:04.839Z,0.01
2022-10-28T06:10:04.843Z,0.01
2022-10-28T06:11:03.305Z,0.01
2022-10-28T06:12:03.256Z,0.01
2022-10-28T06:13:03.258Z,0.01
2022-10-28T06:14:03.237Z,0.01
2022-10-28T06:15:03.199Z,0.03
2022-10-28T06:16:03.230Z,0.03
2022-10-28T06:17:03.248Z,0.03
2022-10-28T06:18:03.196Z,0.03
2022-10-28T06:19:03.160Z,0.04
2022-10-28T06:20:03.153Z,0.04
2022-10-28T06:21:03.134Z,0.04
2022-10-28T06:22:03.188Z,0.04
2022-10-28T06:23:03.134Z,0.05
2022-10-28T06:24:03.127Z,0.05
2022-10-28T06:25:03.076Z,0.05
2022-10-28T06:26:03.121Z,0.05
2022-10-28T06:27:03.062Z,0.06
2022-10-28T06:28:05.811Z,0.06
2022-10-28T06:29:03.215Z,0.06
2022-10-28T06:30:03.080Z,0.08
2022-10-28T06:31:03.004Z,0.08
2022-10-28T06:32:03.053Z,0.08
2022-10-28T06:33:02.991Z,0.08
2022-10-28T06:34:02.989Z,0.08
2022-10-28T06:35:03.019Z,0.09
2022-10-28T06:36:02.976Z,0.09
2022-10-28T06:37:02.931Z,0.09
2022-10-28T06:38:08.522Z,0.09
2022-10-28T06:39:02.910Z,0.10
2022-10-28T06:40:02.905Z,0.10
2022-10-28T06:41:02.928Z,0.10
2022-10-28T06:42:02.895Z,0.11
2022-10-28T06:43:02.855Z,0.11
2022-10-28T06:44:02.860Z,0.11
2022-10-28T06:45:02.845Z,0.13
2022-10-28T06:46:02.843Z,0.13
2022-10-28T06:47:04.352Z,0.13
2022-10-28T06:48:04.346Z,0.13
2022-10-28T06:49:04.300Z,0.13
2022-10-28T06:50:04.310Z,0.13
2022-10-28T06:51:04.289Z,0.13
2022-10-28T06:52:04.276Z,0.13
2022-10-28T06:53:04.294Z,0.13
2022-10-28T06:54:04.249Z,0.13
2022-10-28T06:55:04.232Z,0.13
2022-10-28T06:56:04.246Z,0.13
2022-10-28T06:57:04.196Z,0.14
2022-10-28T06:58:04.202Z,0.14
2022-10-28T06:59:04.219Z,0.15
2022-10-28T07:00:04.171Z,0.15
2022-10-28T07:01:04.250Z,0.15
2022-10-28T07:02:04.288Z,0.16
2022-10-28T07:03:04.237Z,0.16
2022-10-28T07:04:04.196Z,0.16
2022-10-28T07:05:04.130Z,0.18
2022-10-28T07:06:04.190Z,0.18
2022-10-28T07:07:04.093Z,0.18
2022-10-28T07:08:04.079Z,0.18
2022-10-28T07:09:04.073Z,0.19
2022-10-28T07:10:04.081Z,0.19
2022-10-28T07:11:04.080Z,0.20
2022-10-28T07:12:10.544Z,0.20
2022-10-28T07:13:03.988Z,0.22
2022-10-28T07:14:03.993Z,0.22
2022-10-28T07:15:03.981Z,0.23
2022-10-28T07:16:04.021Z,0.22
2022-10-28T07:17:04.009Z,0.23
2022-10-28T07:18:03.974Z,0.23
2022-10-28T07:19:03.961Z,0.23
2022-10-28T07:20:03.933Z,0.23
2022-10-28T07:21:03.943Z,0.24
2022-10-28T07:22:03.893Z,0.25
2022-10-28T07:23:03.973Z,0.27
2022-10-28T07:24:03.865Z,0.27
2022-10-28T07:25:03.847Z,0.27
2022-10-28T07:26:03.838Z,0.27
2022-10-28T07:27:03.836Z,0.28
2022-10-28T07:28:03.834Z,0.28
2022-10-28T07:29:03.988Z,0.28
2022-10-28T07:30:03.811Z,0.28
2022-10-28T07:31:03.884Z,0.28
2022-10-28T07:32:03.759Z,0.28
2022-10-28T07:33:03.757Z,0.28
2022-10-28T07:34:03.738Z,0.29
2022-10-28T07:35:03.745Z,0.29
2022-10-28T07:36:03.717Z,0.29
2022-10-28T07:37:03.731Z,0.29
2022-10-28T07:38:03.734Z,0.30
2022-10-28T07:39:03.659Z,0.30
2022-10-28T07:40:03.676Z,0.32
2022-10-28T07:41:03.873Z,0.32
2022-10-28T07:42:03.644Z,0.32
2022-10-28T07:43:03.696Z,0.33
2022-10-28T07:44:03.629Z,0.33
2022-10-28T07:45:03.597Z,0.33
2022-10-28T07:46:03.606Z,0.33
2022-10-28T07:47:03.598Z,0.34
2022-10-28T07:48:03.577Z,0.35
2022-10-28T07:49:03.576Z,0.37
2022-10-28T07:50:03.526Z,0.37
2022-10-28T07:51:03.522Z,0.35
2022-10-28T07:52:03.527Z,0.37
2022-10-28T07:53:03.555Z,0.37
2022-10-28T07:54:03.471Z,0.37
2022-10-28T07:55:03.516Z,0.37
2022-10-28T07:56:03.456Z,0.37
2022-10-28T07:57:03.437Z,0.37
2022-10-28T07:58:03.436Z,0.37
2022-10-28T07:59:03.452Z,0.38
2022-10-28T08:00:03.444Z,0.38
2022-10-28T08:01:03.426Z,0.41
2022-10-28T08:02:03.460Z,0.39
2022-10-28T08:03:03.355Z,0.41
2022-10-28T08:04:03.351Z,0.39
2022-10-28T08:05:03.339Z,0.39
2022-10-28T08:06:03.331Z,0.39
2022-10-28T08:07:03.297Z,0.39
2022-10-28T08:08:03.289Z,0.39
2022-10-28T08:09:03.249Z,0.41
2022-10-28T08:10:03.226Z,0.41
2022-10-28T08:11:03.254Z,0.42
2022-10-28T08:12:03.192Z,0.42
2022-10-28T08:13:03.185Z,0.42
2022-10-28T08:14:03.160Z,0.43
2022-10-28T08:15:03.164Z,0.42
2022-10-28T08:16:03.139Z,0.43
2022-10-28T08:17:03.176Z,0.44
2022-10-28T08:18:03.138Z,0.42
2022-10-28T08:19:07.517Z,0.41
2022-10-28T08:20:03.071Z,0.42
2022-10-28T08:21:03.220Z,0.46
2022-10-28T08:22:03.096Z,0.47
2022-10-28T08:23:05.360Z,0.48
2022-10-28T08:24:03.029Z,0.49
2022-10-28T08:25:03.087Z,0.51
2022-10-28T08:26:02.986Z,0.51
2022-10-28T08:27:02.990Z,0.52
2022-10-28T08:28:03.023Z,0.52
2022-10-28T08:29:02.966Z,0.51
2022-10-28T08:30:02.936Z,0.53
2022-10-28T08:31:10.136Z,0.53
2022-10-28T08:32:02.922Z,0.54
2022-10-28T08:33:02.910Z,0.54
2022-10-28T08:34:02.943Z,0.54
2022-10-28T08:35:02.896Z,0.54
2022-10-28T08:36:02.852Z,0.54
2022-10-28T08:37:02.933Z,0.54
2022-10-28T08:38:02.834Z,0.54
2022-10-28T08:39:02.884Z,0.54
2022-10-28T08:40:02.874Z,0.54
2022-10-28T08:41:02.800Z,0.54
2022-10-28T08:42:02.782Z,0.54
2022-10-28T08:43:02.814Z,0.54
2022-10-28T08:44:02.748Z,0.54
2022-10-28T08:45:02.854Z,0.54
2022-10-28T08:46:02.790Z,0.54
2022-10-28T08:47:02.728Z,0.53
2022-10-28T08:48:02.707Z,0.54
2022-10-28T08:49:02.767Z,0.54
2022-10-28T08:50:02.675Z,0.53
2022-10-28T08:51:02.714Z,0.53
2022-10-28T08:52:02.655Z,0.53
2022-10-28T08:53:02.704Z,0.53
2022-10-28T08:54:02.622Z,0.53
2022-10-28T08:55:02.706Z,0.53
2022-10-28T08:56:02.604Z,0.53
2022-10-28T08:57:02.660Z,0.53
2022-10-28T08:58:02.573Z,0.53
2022-10-28T08:59:02.572Z,0.53
2022-10-28T09:00:02.541Z,0.54
2022-10-28T09:01:02.641Z,0.54
2022-10-28T09:02:02.526Z,0.56
2022-10-28T09:03:02.547Z,0.57
2022-10-28T09:04:02.494Z,0.58
2022-10-28T09:05:02.532Z,0.58
2022-10-28T09:06:02.465Z,0.59
2022-10-28T09:07:02.467Z,0.61
2022-10-28T09:08:02.437Z,0.61
2022-10-28T09:09:03.414Z,0.62
2022-10-28T09:10:02.542Z,0.61
2022-10-28T09:11:02.434Z,0.59
2022-10-28T09:12:02.390Z,0.59
2022-10-28T09:13:02.396Z,0.59
2022-10-28T09:14:02.403Z,0.59
2022-10-28T09:15:02.518Z,0.58
2022-10-28T09:16:02.337Z,0.57
2022-10-28T09:17:02.329Z,0.59
2022-10-28T09:18:02.347Z,0.62
2022-10-28T09:19:02.305Z,0.62
2022-10-28T09:20:02.323Z,0.58
2022-10-28T09:21:02.326Z,0.62
2022-10-28T09:22:02.255Z,0.65
2022-10-28T09:23:02.264Z,0.63
2022-10-28T09:24:02.289Z,0.61
2022-10-28T09:25:02.454Z,0.63
2022-10-28T09:26:02.212Z,0.66
2022-10-28T09:27:02.245Z,0.68
2022-10-28T09:28:02.171Z,0.68
2022-10-28T09:29:02.517Z,0.68
2022-10-28T09:30:02.147Z,0.68
2022-10-28T09:31:02.148Z,0.68
2022-10-28T09:32:02.132Z,0.70
2022-10-28T09:33:02.150Z,0.70
2022-10-28T09:34:02.098Z,0.70
2022-10-28T09:35:02.094Z,0.70
2022-10-28T09:36:02.065Z,0.70
2022-10-28T09:37:02.094Z,0.70
2022-10-28T09:38:02.079Z,0.68
2022-10-28T09:39:02.084Z,0.68
2022-10-28T09:40:02.024Z,0.68
2022-10-28T09:41:02.016Z,0.68
2022-10-28T09:42:02.045Z,0.68
2022-10-28T09:43:02.003Z,0.68
2022-10-28T09:44:02.008Z,0.67
2022-10-28T09:45:02.004Z,0.67
2022-10-28T09:46:01.939Z,0.67
2022-10-28T09:47:01.939Z,0.67
2022-10-28T09:48:02.072Z,0.66
2022-10-28T09:49:01.915Z,0.66
2022-10-28T09:50:01.886Z,0.66
2022-10-28T09:51:02.018Z,0.67
2022-10-28T09:52:01.921Z,0.67
2022-10-28T09:53:01.885Z,0.66
2022-10-28T09:54:01.832Z,0.66
2022-10-28T09:55:01.854Z,0.65
2022-10-28T09:56:01.859Z,0.65
2022-10-28T09:57:01.859Z,0.63
2022-10-28T09:58:01.817Z,0.63
2022-10-28T09:59:01.808Z,0.65
2022-10-28T10:00:01.856Z,0.66
2022-10-28T10:01:01.785Z,0.66
2022-10-28T10:02:01.909Z,0.68
2022-10-28T10:03:01.883Z,0.68
2022-10-28T10:04:01.714Z,0.70
2022-10-28T10:05:01.710Z,0.70
2022-10-28T10:06:01.678Z,0.70
2022-10-28T10:07:01.719Z,0.70
2022-10-28T10:08:01.755Z,0.70
2022-10-28T10:09:01.812Z,0.70
2022-10-28T10:10:01.701Z,0.71
2022-10-28T10:11:01.617Z,0.71
2022-10-28T10:12:01.593Z,0.72
2022-10-28T10:13:01.602Z,0.72
2022-10-28T10:14:01.645Z,0.72
2022-10-28T10:15:01.593Z,0.72
2022-10-28T10:16:01.546Z,0.72
2022-10-28T10:17:01.577Z,0.73
2022-10-28T10:18:01.522Z,0.73
2022-10-28T10:19:01.526Z,0.73
2022-10-28T10:20:01.517Z,0.73
2022-10-28T10:21:01.533Z,0.75
2022-10-28T10:22:01.460Z,0.75
2022-10-28T10:23:01.578Z,0.75
2022-10-28T10:24:01.468Z,0.76
2022-10-28T10:25:01.445Z,0.76
2022-10-28T10:26:01.539Z,0.76
2022-10-28T10:27:01.442Z,0.77
2022-10-28T10:28:01.413Z,0.77
2022-10-28T10:29:01.387Z,0.77
2022-10-28T10:30:01.372Z,0.77
2022-10-28T10:31:01.351Z,0.78
2022-10-28T10:32:01.342Z,0.78
2022-10-28T10:33:01.363Z,0.78
2022-10-28T10:34:01.302Z,0.78
2022-10-28T10:35:01.300Z,0.76
2022-10-28T10:36:01.268Z,0.77
2022-10-28T10:37:01.305Z,0.76
2022-10-28T10:38:01.266Z,0.77
2022-10-28T10:39:01.296Z,0.76
2022-10-28T10:40:01.232Z,0.73
2022-10-28T10:41:01.232Z,0.78
2022-10-28T10:42:01.188Z,0.78
2022-10-28T10:44:01.232Z,0.77
2022-10-28T10:45:01.207Z,0.78
2022-10-28T10:46:01.149Z,0.80
2022-10-28T10:47:05.831Z,0.78
2022-10-28T10:48:01.126Z,0.80
2022-10-28T10:49:01.114Z,0.77
2022-10-28T10:50:01.082Z,0.78
2022-10-28T10:51:01.132Z,0.80
2022-10-28T10:52:01.066Z,0.77
2022-10-28T10:53:01.055Z,0.77
2022-10-28T10:54:01.038Z,0.77
2022-10-28T10:55:01.030Z,0.84
2022-10-28T10:56:01.005Z,0.86
2022-10-28T10:57:01.046Z,0.87
2022-10-28T10:58:00.973Z,0.87
2022-10-28T10:59:00.977Z,0.89
2022-10-28T11:00:00.953Z,0.90
2022-10-28T11:01:00.958Z,0.87
2022-10-28T11:02:01.093Z,0.89
2022-10-28T11:03:01.011Z,0.89
2022-10-28T11:04:00.909Z,0.89
2022-10-28T11:05:00.907Z,0.89
2022-10-28T11:07:00.877Z,0.89
2022-10-28T11:08:00.849Z,0.90
2022-10-28T11:09:00.926Z,0.89
2022-10-28T11:10:00.821Z,0.87
2022-10-28T11:11:00.822Z,0.87
2022-10-28T11:12:00.795Z,0.86
2022-10-28T11:13:00.803Z,0.86
2022-10-28T11:14:00.784Z,0.82
2022-10-28T11:15:00.812Z,0.84
2022-10-28T11:16:00.742Z,0.84
2022-10-28T11:17:00.758Z,0.82
2022-10-28T11:18:00.720Z,0.84
2022-10-28T11:19:00.720Z,0.87
2022-10-28T11:20:00.711Z,0.87
2022-10-28T11:21:00.732Z,0.87
2022-10-28T11:22:00.661Z,0.87
2022-10-28T11:23:00.671Z,0.86
2022-10-28T11:24:00.651Z,0.87
2022-10-28T11:25:00.637Z,0.86
2022-10-28T11:26:00.621Z,0.85
2022-10-28T11:27:00.671Z,0.86
2022-10-28T11:28:04.033Z,0.87
2022-10-28T11:29:00.614Z,0.86
2022-10-28T11:30:00.565Z,0.85
2022-10-28T11:31:00.625Z,0.87
2022-10-28T11:32:00.542Z,0.85
2022-10-28T11:33:08.014Z,0.82
2022-10-28T11:34:00.509Z,0.80
2022-10-28T11:35:00.506Z,0.78
2022-10-28T11:36:00.480Z,0.80
2022-10-28T11:37:00.535Z,0.81
2022-10-28T11:38:00.453Z,0.78
2022-10-28T11:39:00.450Z,0.76
2022-10-28T11:40:00.433Z,0.76
2022-10-28T11:41:00.472Z,0.73
2022-10-28T11:42:00.400Z,0.72
2022-10-28T11:43:00.426Z,0.72
2022-10-28T11:44:04.947Z,0.72
2022-10-28T11:45:00.386Z,0.72
2022-10-28T11:46:00.342Z,0.72
2022-10-28T11:47:04.063Z,0.72
2022-10-28T11:48:00.354Z,0.72
2022-10-28T11:49:00.321Z,0.72
2022-10-28T11:50:00.315Z,0.72
2022-10-28T11:51:00.298Z,0.73
2022-10-28T11:52:00.272Z,0.80
2022-10-28T11:53:00.303Z,0.82
2022-10-28T11:54:00.242Z,0.84
2022-10-28T11:55:00.254Z,0.82
2022-10-28T11:56:00.217Z,0.81
2022-10-28T11:57:00.228Z,0.78
2022-10-28T11:58:00.269Z,0.77
2022-10-28T14:00:14.760Z,0.76
2022-10-28T14:00:19.853Z,0.54
2022-10-28T14:01:19.849Z,0.54
2022-10-28T14:02:36.436Z,0.54
2022-10-28T14:03:20.017Z,0.54
2022-10-28T14:04:19.719Z,0.54
2022-10-28T14:05:19.733Z,0.54
2022-10-28T14:06:19.726Z,0.54
2022-10-28T14:07:19.723Z,0.54
2022-10-28T14:08:19.687Z,0.54
2022-10-28T14:09:19.656Z,0.54
2022-10-28T14:10:20.804Z,0.54
2022-10-28T14:11:19.795Z,0.56
2022-10-28T14:12:19.647Z,0.56
2022-10-28T14:13:19.631Z,0.56
2022-10-28T14:14:19.591Z,0.56
2022-10-28T14:15:19.584Z,0.57
2022-10-28T14:16:19.584Z,0.58
2022-10-28T14:17:19.552Z,0.58
2022-10-28T14:18:42.431Z,0.61
2022-10-28T14:19:19.533Z,0.61
2022-10-28T14:20:19.503Z,0.62
2022-10-28T14:21:19.506Z,0.63
2022-10-28T14:22:19.538Z,0.65
2022-10-28T14:23:19.467Z,0.66
2022-10-28T14:24:19.485Z,0.67
2022-10-28T14:25:20.085Z,0.70
2022-10-28T14:26:19.419Z,0.71
2022-10-28T14:27:19.427Z,0.71
2022-10-28T14:28:19.392Z,0.70
2022-10-28T14:29:19.411Z,0.70
2022-10-28T14:30:19.436Z,0.70
2022-10-28T14:31:19.370Z,0.68
2022-10-28T14:32:19.334Z,0.66
2022-10-28T14:33:19.350Z,0.63
2022-10-28T14:34:19.320Z,0.62
2022-10-28T14:35:19.312Z,0.61
2022-10-28T14:36:19.385Z,0.61
2022-10-28T14:37:22.234Z,0.61
2022-10-28T14:38:19.268Z,0.59
2022-10-28T14:39:19.261Z,0.58
2022-10-28T14:40:19.247Z,0.57
2022-10-28T14:41:19.230Z,0.56
2022-10-28T14:42:19.384Z,0.53
2022-10-28T14:43:19.504Z,0.52
2022-10-28T14:44:19.182Z,0.49
2022-10-28T14:45:19.183Z,0.47
2022-10-28T14:46:19.158Z,0.46
2022-10-28T14:47:19.150Z,0.44
2022-10-28T14:48:19.178Z,0.43
2022-10-28T14:49:19.155Z,0.42
2022-10-28T14:50:19.097Z,0.41
2022-10-28T14:51:19.098Z,0.39
2022-10-28T14:52:19.099Z,0.39
2022-10-28T14:53:19.079Z,0.39
2022-10-28T14:54:19.114Z,0.39
2022-10-28T14:55:19.046Z,0.38
2022-10-28T14:56:19.102Z,0.38
2022-10-28T14:57:19.021Z,0.38
2022-10-28T14:58:19.001Z,0.37
2022-10-28T14:59:19.002Z,0.37
2022-10-28T15:00:19.001Z,0.38
2022-10-28T15:01:19.200Z,0.37
2022-10-28T15:02:19.073Z,0.35
2022-10-28T15:03:18.940Z,0.35
2022-10-28T15:04:18.923Z,0.35
2022-10-28T15:05:18.916Z,0.35
2022-10-28T15:06:18.920Z,0.35
2022-10-28T15:07:18.890Z,0.34
2022-10-28T15:08:18.867Z,0.34
2022-10-28T15:09:18.867Z,0.33
2022-10-28T15:10:18.840Z,0.32
2022-10-28T15:11:18.847Z,0.32
2022-10-28T15:12:18.845Z,0.30
2022-10-28T15:13:18.828Z,0.29
2022-10-28T15:14:18.794Z,0.29
2022-10-28T15:15:18.781Z,0.28
2022-10-28T15:16:18.761Z,0.27
2022-10-28T15:17:18.764Z,0.25
2022-10-28T15:18:18.782Z,0.25
2022-10-28T15:19:18.734Z,0.24
2022-10-28T15:20:18.705Z,0.23
2022-10-28T15:21:18.704Z,0.23
2022-10-28T15:22:18.675Z,0.22
2022-10-28T15:23:18.736Z,0.22